createdAt,value
2019-01-06T00:01:18.680Z,1.70
2019-01-06T00:03:52.896Z,2.00
2019-01-06T00:06:28.162Z,1.60
2019-01-06T00:09:15.334Z,1.57
2019-01-06T00:12:02.908Z,2.00
2019-01-06T00:14:40.192Z,1.90
2019-01-06T00:17:23.724Z,1.50
2019-01-06T00:20:06.800Z,1.70
2019-01-06T00:22:44.068Z,2.07
2019-01-06T00:25:27.320Z,1.80
2019-01-06T00:27:58.619Z,1.50
2019-01-06T00:30:32.445Z,1.97
2019-01-06T00:33:15.670Z,1.90
2019-01-06T00:36:03.686Z,1.60
2019-01-06T00:38:41.116Z,1.40
2019-01-06T00:41:12.344Z,1.77
2019-01-06T00:43:49.177Z,1.57
2019-01-06T00:46:20.418Z,1.70
2019-01-06T00:48:51.637Z,1.60
2019-01-06T00:51:25.614Z,1.70
2019-01-06T00:53:59.555Z,1.60
2019-01-06T00:56:30.774Z,1.53
2019-01-06T00:59:18.379Z,1.50
2019-01-06T01:02:04.528Z,1.60
2019-01-06T01:04:35.772Z,1.60
2019-01-06T01:07:22.071Z,1.80
2019-01-06T01:10:09.424Z,1.60
2019-01-06T01:12:49.861Z,1.80
2019-01-06T01:15:33.237Z,1.83
2019-01-06T01:18:22.558Z,1.70
2019-01-06T01:20:53.810Z,1.40
2019-01-06T01:23:25.051Z,1.73
2019-01-06T01:26:02.242Z,1.70
2019-01-06T01:28:49.996Z,1.97
2019-01-06T01:31:37.479Z,1.60
2019-01-06T01:34:08.630Z,1.90
2019-01-06T01:36:52.126Z,2.10
2019-01-06T01:39:32.147Z,1.73
2019-01-06T01:42:03.398Z,1.60
2019-01-06T01:44:50.875Z,2.20
2019-01-06T01:47:22.094Z,1.40
2019-01-06T01:50:08.311Z,1.40
2019-01-06T01:52:42.354Z,1.83
2019-01-06T01:55:29.922Z,1.60
2019-01-06T01:58:13.418Z,1.70
2019-01-06T02:00:50.632Z,1.50
2019-01-06T02:03:37.002Z,1.60
2019-01-06T02:06:14.236Z,1.57
2019-01-06T02:09:01.757Z,1.60
2019-01-06T02:11:37.455Z,1.67
2019-01-06T02:14:24.899Z,1.50
2019-01-06T02:17:13.829Z,1.60
2019-01-06T02:20:03.165Z,1.50
2019-01-06T02:22:38.428Z,1.63
2019-01-06T02:25:15.536Z,1.60
2019-01-06T02:27:46.761Z,1.40
2019-01-06T02:30:34.448Z,1.50
2019-01-06T02:33:08.390Z,1.33
2019-01-06T02:35:39.961Z,1.60
2019-01-06T02:38:13.966Z,1.60
2019-01-06T02:41:01.922Z,1.63
2019-01-06T02:43:42.306Z,1.60
2019-01-06T02:46:19.486Z,1.80
2019-01-06T02:48:50.689Z,1.90
2019-01-06T02:51:21.936Z,1.30
2019-01-06T02:53:53.221Z,1.50
2019-01-06T02:56:36.124Z,1.77
2019-01-06T02:59:22.515Z,1.97
2019-01-06T03:02:10.122Z,1.70
2019-01-06T03:04:50.306Z,1.50
2019-01-06T03:07:24.134Z,1.73
2019-01-06T03:10:01.586Z,1.60
2019-01-06T03:12:48.926Z,1.80
2019-01-06T03:15:20.062Z,1.53
2019-01-06T03:18:07.756Z,1.70
2019-01-06T03:20:55.580Z,1.77
2019-01-06T03:23:41.818Z,1.50
2019-01-06T03:26:17.720Z,1.93
2019-01-06T03:29:03.704Z,1.83
2019-01-06T03:31:47.103Z,2.07
2019-01-06T03:34:21.078Z,1.70
2019-01-06T03:36:55.260Z,1.70
2019-01-06T03:39:26.556Z,2.00
2019-01-06T03:42:14.258Z,1.60
2019-01-06T03:44:45.493Z,1.73
2019-01-06T03:47:31.674Z,1.70
2019-01-06T03:50:12.187Z,1.53
2019-01-06T03:52:43.403Z,1.30
2019-01-06T03:55:17.378Z,1.93
2019-01-06T03:58:06.958Z,1.77
2019-01-06T04:00:40.910Z,1.97
2019-01-06T04:03:24.078Z,2.00
2019-01-06T04:06:01.525Z,1.77
2019-01-06T04:08:44.426Z,1.73
2019-01-06T04:11:18.407Z,1.93
2019-01-06T04:13:49.653Z,1.85
2019-01-06T04:16:35.907Z,1.90
2019-01-06T04:19:07.216Z,1.70
2019-01-06T04:21:38.403Z,2.07
2019-01-06T04:24:21.608Z,2.10
2019-01-06T04:26:55.796Z,1.97
2019-01-06T04:29:32.805Z,2.10
2019-01-06T04:32:20.184Z,1.97
2019-01-06T04:34:53.971Z,1.97
2019-01-06T04:37:37.424Z,1.90
2019-01-06T04:40:23.414Z,1.77
2019-01-06T04:43:00.957Z,2.23
2019-01-06T04:45:35.245Z,1.90
2019-01-06T04:48:12.633Z,2.30
2019-01-06T04:50:49.800Z,1.70
2019-01-06T04:53:33.031Z,1.83
2019-01-06T04:56:20.613Z,1.80
2019-01-06T04:58:57.898Z,1.90
2019-01-06T05:01:45.509Z,1.80
2019-01-06T05:04:33.342Z,1.63
2019-01-06T05:07:21.066Z,1.83
2019-01-06T05:10:07.361Z,1.40
2019-01-06T05:12:38.530Z,1.33
2019-01-06T05:15:09.742Z,1.50
2019-01-06T05:17:57.154Z,1.60
2019-01-06T05:20:28.362Z,1.50
2019-01-06T05:23:16.232Z,1.33
2019-01-06T05:25:50.187Z,1.43
2019-01-06T05:28:37.652Z,1.60
2019-01-06T05:31:17.962Z,1.47
2019-01-06T05:33:58.247Z,1.20
2019-01-06T05:36:45.662Z,1.17
2019-01-06T05:39:16.884Z,1.43
2019-01-06T05:41:48.123Z,1.17
2019-01-06T05:44:31.430Z,1.40
2019-01-06T05:47:08.940Z,1.33
2019-01-06T05:49:58.260Z,1.50
2019-01-06T05:52:29.484Z,1.30
2019-01-06T05:55:09.688Z,1.20
2019-01-06T05:57:46.896Z,1.67
2019-01-06T06:00:20.883Z,1.40
2019-01-06T06:02:55.031Z,2.87
2019-01-06T06:05:26.236Z,1.70
2019-01-06T06:08:13.362Z,1.70
2019-01-06T06:10:47.331Z,1.70
2019-01-06T06:13:21.292Z,1.40
2019-01-06T06:16:08.915Z,1.80
2019-01-06T06:18:56.525Z,1.80
2019-01-06T06:21:36.850Z,1.30
2019-01-06T06:24:24.495Z,1.93
2019-01-06T06:27:10.610Z,1.50
2019-01-06T06:29:41.850Z,1.70
2019-01-06T06:32:29.607Z,1.57
2019-01-06T06:35:00.834Z,1.90
2019-01-06T06:37:41.089Z,2.23
2019-01-06T06:40:12.312Z,1.67
2019-01-06T06:43:01.909Z,1.80
2019-01-06T06:45:49.929Z,2.10
2019-01-06T06:48:21.138Z,1.87
2019-01-06T06:50:58.093Z,2.27
2019-01-06T06:53:47.650Z,1.90
2019-01-06T06:56:27.714Z,2.57
2019-01-06T06:58:58.925Z,2.57
2019-01-06T07:01:45.415Z,2.50
2019-01-06T07:04:19.528Z,2.53
2019-01-06T07:07:02.751Z,2.80
2019-01-06T07:09:45.798Z,2.90
2019-01-06T07:12:26.253Z,2.50
2019-01-06T07:15:09.823Z,2.40
2019-01-06T07:18:05.330Z,2.40
2019-01-06T07:20:45.263Z,2.70
2019-01-06T07:23:16.422Z,2.47
2019-01-06T07:25:53.692Z,2.83
2019-01-06T07:28:39.887Z,2.67
2019-01-06T07:31:29.464Z,3.20
2019-01-06T07:34:03.497Z,2.90
2019-01-06T07:36:51.002Z,2.80
2019-01-06T07:39:28.024Z,2.93
2019-01-06T07:41:59.280Z,3.00
2019-01-06T07:44:30.459Z,2.77
2019-01-06T07:47:07.562Z,2.70
2019-01-06T07:49:54.990Z,2.50
2019-01-06T07:52:42.499Z,3.10
2019-01-06T07:55:25.780Z,2.97
2019-01-06T07:58:02.898Z,3.17
2019-01-06T08:00:40.034Z,2.90
2019-01-06T08:03:29.524Z,3.50
2019-01-06T08:06:16.970Z,2.83
2019-01-06T08:09:04.220Z,2.93
2019-01-06T08:11:36.606Z,2.87
2019-01-06T08:14:22.480Z,2.97
2019-01-06T08:17:06.059Z,3.07
2019-01-06T08:19:40.254Z,2.87
2019-01-06T08:22:27.518Z,2.80
2019-01-06T08:25:05.742Z,2.70
2019-01-06T08:27:36.897Z,2.73
2019-01-06T08:30:17.248Z,4.37
2019-01-06T08:32:57.867Z,3.30
2019-01-06T08:35:41.293Z,2.80
2019-01-06T08:38:18.432Z,6.63
2019-01-06T08:40:52.367Z,3.30
2019-01-06T08:43:26.526Z,3.00
2019-01-06T08:46:03.735Z,2.60
2019-01-06T08:48:49.969Z,3.10
2019-01-06T08:51:26.999Z,5.27
2019-01-06T08:54:01.401Z,2.70
2019-01-06T08:56:32.632Z,2.80
2019-01-06T08:59:12.786Z,3.00
2019-01-06T09:02:00.388Z,2.80
2019-01-06T09:04:34.609Z,3.03
2019-01-06T09:07:05.828Z,2.73
2019-01-06T09:09:46.791Z,2.63
2019-01-06T09:12:18.027Z,2.97
2019-01-06T09:14:52.204Z,2.80
2019-01-06T09:17:23.484Z,2.47
2019-01-06T09:20:00.658Z,2.20
2019-01-06T09:22:51.569Z,2.60
2019-01-06T09:25:41.199Z,2.73
2019-01-06T09:28:12.284Z,2.40
2019-01-06T09:30:59.982Z,2.17
2019-01-06T09:33:34.059Z,2.30
2019-01-06T09:36:11.231Z,2.30
2019-01-06T09:38:48.180Z,2.60
2019-01-06T09:41:19.404Z,2.40
2019-01-06T09:43:59.857Z,2.60
2019-01-06T09:46:31.071Z,2.53
2019-01-06T09:49:02.306Z,2.90
2019-01-06T09:51:51.296Z,2.80
2019-01-06T09:54:34.374Z,2.80
2019-01-06T09:57:14.571Z,3.30
2019-01-06T09:59:51.851Z,3.50
2019-01-06T10:02:38.112Z,4.20
2019-01-06T10:05:25.622Z,3.20
2019-01-06T10:08:13.405Z,3.43
2019-01-06T10:10:44.628Z,3.67
2019-01-06T10:13:22.141Z,3.60
2019-01-06T10:16:09.853Z,3.40
2019-01-06T10:18:57.381Z,2.83
2019-01-06T10:21:31.589Z,3.00
2019-01-06T10:24:19.303Z,2.90
2019-01-06T10:26:56.965Z,3.33
2019-01-06T10:29:44.540Z,3.43
2019-01-06T10:32:18.476Z,4.90
2019-01-06T10:34:52.322Z,3.70
2019-01-06T10:37:40.099Z,3.50
2019-01-06T10:40:20.012Z,2.70
2019-01-06T10:43:00.287Z,2.70
2019-01-06T10:45:34.080Z,3.07
2019-01-06T10:48:05.230Z,2.97
2019-01-06T10:50:39.532Z,3.10
2019-01-06T10:53:22.867Z,3.13
2019-01-06T10:56:06.361Z,3.50
2019-01-06T10:58:51.823Z,3.70
2019-01-06T11:01:23.066Z,3.40
2019-01-06T11:04:03.471Z,3.13
2019-01-06T11:06:34.686Z,3.33
2019-01-06T11:09:22.931Z,3.20
2019-01-06T11:12:10.566Z,3.33
2019-01-06T11:14:41.792Z,3.07
2019-01-06T11:17:29.420Z,3.30
2019-01-06T11:20:00.629Z,3.30
2019-01-06T11:22:48.315Z,3.00
2019-01-06T11:25:19.563Z,3.13
2019-01-06T11:28:03.000Z,3.30
2019-01-06T11:30:43.145Z,3.30
2019-01-06T11:33:30.511Z,3.50
2019-01-06T11:36:07.469Z,3.73
2019-01-06T11:38:54.939Z,3.13
2019-01-06T11:41:32.147Z,3.70
2019-01-06T11:44:06.052Z,3.63
2019-01-06T11:46:53.271Z,3.67
2019-01-06T11:49:30.428Z,4.23
2019-01-06T11:52:01.749Z,3.73
2019-01-06T11:54:32.980Z,3.90
2019-01-06T11:57:20.149Z,4.10
2019-01-06T12:00:03.670Z,3.60
2019-01-06T12:02:38.998Z,3.53
2019-01-06T12:05:23.959Z,3.47
2019-01-06T12:08:10.413Z,3.77
2019-01-06T12:10:56.670Z,3.03
2019-01-06T12:13:42.908Z,3.33
2019-01-06T12:16:20.198Z,3.63
2019-01-06T12:18:57.199Z,3.73
2019-01-06T12:21:46.569Z,3.57
2019-01-06T12:24:33.850Z,3.17
2019-01-06T12:27:05.115Z,3.53
2019-01-06T12:29:39.101Z,4.87
2019-01-06T12:32:13.438Z,4.50
2019-01-06T12:34:56.719Z,4.00
2019-01-06T12:37:33.682Z,3.53
2019-01-06T12:40:14.225Z,3.83
2019-01-06T12:42:57.662Z,3.83
2019-01-06T12:45:28.878Z,3.60
2019-01-06T12:48:16.651Z,3.47
2019-01-06T12:51:15.809Z,3.80
2019-01-06T12:53:47.008Z,3.43
2019-01-06T12:56:34.410Z,3.20
2019-01-06T12:59:22.161Z,3.20
2019-01-06T13:01:57.460Z,3.43
2019-01-06T13:04:37.824Z,3.67
2019-01-06T13:07:17.882Z,3.67
2019-01-06T13:09:51.846Z,3.83
2019-01-06T13:12:26.024Z,3.77
2019-01-06T13:15:03.229Z,3.80
2019-01-06T13:17:50.878Z,4.03
2019-01-06T13:20:33.910Z,4.40
2019-01-06T13:23:11.176Z,4.60
2019-01-06T13:25:48.150Z,4.97
2019-01-06T13:28:19.384Z,4.67
2019-01-06T13:30:56.433Z,3.97
2019-01-06T13:33:42.610Z,4.13
2019-01-06T13:36:17.039Z,4.40
2019-01-06T13:38:51.441Z,4.23
2019-01-06T13:41:31.850Z,4.03
2019-01-06T13:44:22.131Z,3.67
2019-01-06T13:47:10.213Z,4.10
2019-01-06T13:49:56.387Z,3.83
2019-01-06T13:52:45.879Z,4.10
2019-01-06T13:55:35.398Z,3.53
2019-01-06T13:58:22.880Z,11.17
2019-01-06T14:01:10.577Z,8.43
2019-01-06T14:03:44.778Z,5.67
2019-01-06T14:06:22.000Z,4.00
2019-01-06T14:09:09.552Z,4.40
2019-01-06T14:11:46.641Z,3.57
2019-01-06T14:14:26.627Z,3.73
2019-01-06T14:17:14.382Z,4.07
2019-01-06T14:19:48.130Z,4.93
2019-01-06T14:22:22.176Z,8.40
2019-01-06T14:25:08.200Z,4.23
2019-01-06T14:27:51.508Z,4.20
2019-01-06T14:30:39.488Z,3.60
2019-01-06T14:33:26.832Z,3.70
2019-01-06T14:36:01.028Z,3.73
2019-01-06T14:38:48.813Z,3.80
2019-01-06T14:41:28.720Z,3.70
2019-01-06T14:44:16.174Z,3.80
2019-01-06T14:46:53.399Z,3.90
2019-01-06T14:49:24.624Z,3.67
2019-01-06T14:52:12.342Z,3.87
2019-01-06T14:54:43.596Z,3.60
2019-01-06T14:57:20.321Z,3.70
2019-01-06T15:00:06.586Z,3.80
2019-01-06T15:02:40.619Z,3.93
2019-01-06T15:05:27.975Z,4.07
2019-01-06T15:08:07.870Z,3.93
2019-01-06T15:10:44.843Z,4.57
2019-01-06T15:13:27.715Z,3.30
2019-01-06T15:15:58.953Z,3.70
2019-01-06T15:18:42.281Z,3.80
2019-01-06T15:21:16.482Z,3.77
2019-01-06T15:23:47.726Z,3.80
2019-01-06T15:26:18.960Z,4.00
2019-01-06T15:29:05.206Z,4.47
2019-01-06T15:31:52.827Z,4.20
2019-01-06T15:34:26.997Z,4.00
2019-01-06T15:37:06.868Z,4.00
2019-01-06T15:39:40.967Z,3.50
2019-01-06T15:42:23.890Z,3.90
2019-01-06T15:44:57.798Z,4.07
2019-01-06T15:47:31.817Z,4.40
2019-01-06T15:50:05.925Z,3.70
2019-01-06T15:52:37.134Z,4.20
2019-01-06T15:55:24.812Z,4.13
2019-01-06T15:58:12.481Z,5.27
2019-01-06T16:01:00.230Z,5.03
2019-01-06T16:03:47.837Z,4.50
2019-01-06T16:06:34.065Z,4.93
2019-01-06T16:09:06.502Z,4.00
2019-01-06T16:11:49.713Z,5.27
2019-01-06T16:14:29.724Z,4.80
2019-01-06T16:17:03.657Z,4.20
2019-01-06T16:19:34.967Z,4.60
2019-01-06T16:22:22.956Z,3.80
2019-01-06T16:25:10.551Z,4.07
2019-01-06T16:27:41.798Z,4.40
2019-01-06T16:30:15.989Z,3.87
2019-01-06T16:32:50.106Z,3.87
2019-01-06T16:35:24.411Z,3.90
2019-01-06T16:38:11.898Z,3.60
2019-01-06T16:40:58.133Z,4.53
2019-01-06T16:43:44.516Z,4.00
2019-01-06T16:46:24.809Z,3.30
2019-01-06T16:49:01.898Z,4.73
2019-01-06T16:51:41.984Z,4.30
2019-01-06T16:54:29.696Z,3.87
2019-01-06T16:57:17.408Z,3.70
2019-01-06T16:59:54.600Z,3.77
2019-01-06T17:02:42.352Z,3.97
2019-01-06T17:05:16.304Z,4.27
2019-01-06T17:07:56.673Z,4.20
2019-01-06T17:10:56.904Z,3.87
2019-01-06T17:13:41.154Z,3.13
2019-01-06T17:16:18.315Z,3.80
2019-01-06T17:19:04.758Z,4.00
2019-01-06T17:21:52.276Z,4.10
2019-01-06T17:24:29.442Z,3.80
2019-01-06T17:27:12.724Z,3.70
2019-01-06T17:29:53.093Z,3.80
2019-01-06T17:32:30.225Z,4.00
2019-01-06T17:35:17.964Z,3.83
2019-01-06T17:37:51.880Z,3.27
2019-01-06T17:40:31.764Z,3.27
2019-01-06T17:43:12.297Z,3.53
2019-01-06T17:45:55.388Z,4.60
2019-01-06T17:48:41.372Z,4.17
2019-01-06T17:51:15.546Z,5.20
2019-01-06T17:53:52.730Z,3.63
2019-01-06T17:56:23.948Z,3.90
2019-01-06T17:59:01.181Z,3.60
2019-01-06T18:01:32.382Z,3.50
2019-01-06T18:04:03.626Z,3.97
2019-01-06T18:06:51.074Z,7.23
2019-01-06T18:09:31.539Z,4.07
2019-01-06T18:12:05.216Z,3.50
2019-01-06T18:14:48.314Z,4.50
2019-01-06T18:17:25.552Z,3.93
2019-01-06T18:20:13.159Z,5.10
2019-01-06T18:23:00.819Z,3.97
2019-01-06T18:25:32.036Z,4.63
2019-01-06T18:28:20.202Z,4.57
2019-01-06T18:30:51.415Z,5.20
2019-01-06T18:33:34.786Z,4.87
2019-01-06T18:36:22.136Z,7.90
2019-01-06T18:38:56.079Z,6.23
2019-01-06T18:41:27.398Z,7.87
2019-01-06T18:44:14.864Z,7.00
2019-01-06T18:46:48.512Z,4.93
2019-01-06T18:49:19.760Z,5.63
2019-01-06T18:52:08.500Z,5.20
2019-01-06T18:54:49.024Z,8.53
2019-01-06T18:57:38.329Z,5.70
2019-01-06T19:00:19.921Z,6.23
2019-01-06T19:03:07.366Z,24.67
2019-01-06T19:05:50.896Z,8.27
2019-01-06T19:08:38.373Z,5.83
2019-01-06T19:11:26.206Z,5.87
2019-01-06T19:14:00.603Z,7.73
2019-01-06T19:16:37.712Z,7.20
2019-01-06T19:19:08.971Z,27.30
2019-01-06T19:21:40.269Z,21.40
2019-01-06T19:24:20.344Z,27.83
2019-01-06T19:27:09.691Z,9.20
2019-01-06T19:29:40.919Z,6.90
2019-01-06T19:32:30.537Z,10.67
2019-01-06T19:35:10.786Z,12.97
2019-01-06T19:37:54.219Z,8.83
2019-01-06T19:40:28.384Z,11.73
2019-01-06T19:43:16.968Z,7.13
2019-01-06T19:45:50.904Z,9.37
2019-01-06T19:48:25.131Z,8.63
2019-01-06T19:51:02.192Z,14.17
2019-01-06T19:53:36.312Z,7.37
2019-01-06T19:56:23.673Z,9.10
2019-01-06T19:58:54.968Z,8.43
2019-01-06T20:01:42.544Z,7.40
2019-01-06T20:04:13.780Z,8.33
2019-01-06T20:06:54.518Z,8.43
2019-01-06T20:09:28.938Z,7.97
2019-01-06T20:12:16.474Z,7.60
2019-01-06T20:14:47.789Z,16.57
2019-01-06T20:17:21.505Z,8.13
2019-01-06T20:20:07.934Z,8.00
2019-01-06T20:22:44.728Z,8.13
2019-01-06T20:25:16.034Z,11.17
2019-01-06T20:27:59.292Z,7.27
2019-01-06T20:30:45.778Z,8.17
2019-01-06T20:33:19.459Z,7.40
2019-01-06T20:35:50.619Z,9.43
2019-01-06T20:38:21.972Z,7.80
2019-01-06T20:40:56.002Z,8.67
2019-01-06T20:43:33.391Z,9.20
2019-01-06T20:46:21.017Z,8.53
2019-01-06T20:49:07.857Z,8.50
2019-01-06T20:51:55.614Z,10.83
2019-01-06T20:54:33.243Z,10.90
2019-01-06T20:57:19.542Z,6.70
2019-01-06T21:00:05.852Z,7.43
2019-01-06T21:02:53.477Z,14.30
2019-01-06T21:05:24.736Z,7.33
2019-01-06T21:08:04.694Z,7.80
2019-01-06T21:10:51.308Z,8.57
2019-01-06T21:13:38.492Z,7.83
2019-01-06T21:16:15.773Z,10.73
2019-01-06T21:18:47.080Z,7.30
2019-01-06T21:21:30.662Z,7.47
2019-01-06T21:24:18.124Z,7.63
2019-01-06T21:26:52.365Z,9.37
2019-01-06T21:29:29.750Z,8.47
2019-01-06T21:32:03.664Z,8.17
2019-01-06T21:34:34.878Z,15.17
2019-01-06T21:37:22.575Z,13.23
2019-01-06T21:40:10.079Z,9.40
2019-01-06T21:42:41.323Z,12.10
2019-01-06T21:45:28.775Z,10.00
2019-01-06T21:48:00.028Z,20.40
2019-01-06T21:50:49.565Z,13.93
2019-01-06T21:53:20.739Z,8.07
2019-01-06T21:56:08.095Z,10.23
2019-01-06T21:58:54.327Z,21.03
2019-01-06T22:01:41.950Z,9.47
2019-01-06T22:04:28.430Z,9.63
2019-01-06T22:07:16.161Z,9.60
2019-01-06T22:09:56.376Z,9.70
2019-01-06T22:12:27.609Z,9.20
2019-01-06T22:14:58.866Z,11.40
2019-01-06T22:17:32.820Z,10.07
2019-01-06T22:20:19.072Z,9.10
2019-01-06T22:22:50.311Z,10.60
2019-01-06T22:25:24.408Z,9.50
2019-01-06T22:28:11.821Z,9.97
2019-01-06T22:30:59.384Z,9.27
2019-01-06T22:33:45.911Z,10.03
2019-01-06T22:36:33.772Z,10.20
2019-01-06T22:39:08.001Z,8.67
2019-01-06T22:41:51.224Z,8.97
2019-01-06T22:44:31.194Z,9.57
2019-01-06T22:47:08.403Z,9.53
2019-01-06T22:49:42.584Z,9.93
2019-01-06T22:52:16.871Z,8.87
2019-01-06T22:54:48.101Z,9.93
2019-01-06T22:57:19.339Z,10.00
2019-01-06T22:59:59.519Z,9.27
2019-01-06T23:02:42.782Z,9.53
2019-01-06T23:05:19.860Z,9.80
2019-01-06T23:08:09.152Z,9.60
2019-01-06T23:10:40.391Z,9.87
2019-01-06T23:13:23.414Z,9.97
2019-01-06T23:16:09.934Z,9.30
2019-01-06T23:18:41.152Z,9.67
2019-01-06T23:21:15.315Z,10.30
2019-01-06T23:23:58.487Z,8.83
2019-01-06T23:26:38.999Z,9.20
2019-01-06T23:29:16.238Z,9.63
2019-01-06T23:31:50.272Z,9.10
2019-01-06T23:34:21.504Z,9.87
2019-01-06T23:37:04.971Z,9.73
2019-01-06T23:39:47.862Z,9.57
2019-01-06T23:42:28.056Z,9.70
2019-01-06T23:45:15.656Z,9.67
2019-01-06T23:47:55.813Z,9.80
2019-01-06T23:50:36.300Z,10.97
2019-01-06T23:53:07.526Z,9.87
2019-01-06T23:55:56.918Z,9.73
2019-01-06T23:58:30.486Z,10.17
